sensor_id;sensor_type;location;lat;lon;timestamp;temperature;humidity
1415;DHT22;702;49.466;11.086;2022-12-18T00:01:15;-8.80;85.60
1415;DHT22;702;49.466;11.086;2022-12-18T00:03:43;-8.80;85.00
1415;DHT22;702;49.466;11.086;2022-12-18T00:06:11;-8.80;85.00
1415;DHT22;702;49.466;11.086;2022-12-18T00:08:39;-8.80;85.40
1415;DHT22;702;49.466;11.086;2022-12-18T00:11:08;-8.80;85.40
1415;DHT22;702;49.466;11.086;2022-12-18T00:13:39;-8.80;84.60
1415;DHT22;702;49.466;11.086;2022-12-18T00:16:10;-8.80;83.30
1415;DHT22;702;49.466;11.086;2022-12-18T00:18:38;-8.80;82.50
1415;DHT22;702;49.466;11.086;2022-12-18T00:21:06;-8.70;81.70
1415;DHT22;702;49.466;11.086;2022-12-18T00:23:35;-8.80;80.60
1415;DHT22;702;49.466;11.086;2022-12-18T00:26:05;-8.80;79.80
1415;DHT22;702;49.466;11.086;2022-12-18T00:28:34;-9.00;79.60
1415;DHT22;702;49.466;11.086;2022-12-18T00:31:03;-9.00;80.60
1415;DHT22;702;49.466;11.086;2022-12-18T00:33:31;-9.00;81.10
1415;DHT22;702;49.466;11.086;2022-12-18T00:36:00;-8.90;80.70
1415;DHT22;702;49.466;11.086;2022-12-18T00:38:29;-9.00;81.00
1415;DHT22;702;49.466;11.086;2022-12-18T00:40:56;-8.90;80.80
1415;DHT22;702;49.466;11.086;2022-12-18T00:43:23;-8.90;80.30
1415;DHT22;702;49.466;11.086;2022-12-18T00:45:49;-8.90;80.70
1415;DHT22;702;49.466;11.086;2022-12-18T00:48:18;-8.90;81.70
1415;DHT22;702;49.466;11.086;2022-12-18T00:50:47;-9.00;82.40
1415;DHT22;702;49.466;11.086;2022-12-18T00:53:15;-9.00;83.70
1415;DHT22;702;49.466;11.086;2022-12-18T00:55:42;-9.00;83.50
1415;DHT22;702;49.466;11.086;2022-12-18T00:58:11;-9.00;83.80
1415;DHT22;702;49.466;11.086;2022-12-18T01:00:39;-9.00;83.80
1415;DHT22;702;49.466;11.086;2022-12-18T01:03:07;-9.00;83.40
1415;DHT22;702;49.466;11.086;2022-12-18T01:05:39;-9.00;83.00
1415;DHT22;702;49.466;11.086;2022-12-18T01:08:07;-9.10;82.00
1415;DHT22;702;49.466;11.086;2022-12-18T01:10:34;-9.20;82.10
1415;DHT22;702;49.466;11.086;2022-12-18T01:13:01;-9.20;81.90
1415;DHT22;702;49.466;11.086;2022-12-18T01:15:29;-9.20;81.90
1415;DHT22;702;49.466;11.086;2022-12-18T01:17:56;-9.30;81.80
1415;DHT22;702;49.466;11.086;2022-12-18T01:20:23;-9.30;82.30
1415;DHT22;702;49.466;11.086;2022-12-18T01:22:51;-9.30;81.50
1415;DHT22;702;49.466;11.086;2022-12-18T01:25:19;-9.30;81.00
1415;DHT22;702;49.466;11.086;2022-12-18T01:27:46;-9.40;80.60
1415;DHT22;702;49.466;11.086;2022-12-18T01:30:13;-9.40;80.60
1415;DHT22;702;49.466;11.086;2022-12-18T01:32:41;-9.40;79.90
1415;DHT22;702;49.466;11.086;2022-12-18T01:35:08;-9.50;79.60
1415;DHT22;702;49.466;11.086;2022-12-18T01:37:35;-9.50;79.30
1415;DHT22;702;49.466;11.086;2022-12-18T01:40:05;-9.50;78.50
1415;DHT22;702;49.466;11.086;2022-12-18T01:42:34;-9.50;78.30
1415;DHT22;702;49.466;11.086;2022-12-18T01:45:05;-9.50;78.30
1415;DHT22;702;49.466;11.086;2022-12-18T01:47:38;-9.50;78.10
1415;DHT22;702;49.466;11.086;2022-12-18T01:50:09;-9.40;78.20
1415;DHT22;702;49.466;11.086;2022-12-18T01:52:40;-9.40;78.20
1415;DHT22;702;49.466;11.086;2022-12-18T01:55:10;-9.50;78.20
1415;DHT22;702;49.466;11.086;2022-12-18T01:57:39;-9.50;78.30
1415;DHT22;702;49.466;11.086;2022-12-18T02:00:10;-9.50;78.70
1415;DHT22;702;49.466;11.086;2022-12-18T02:02:40;-9.50;78.30
1415;DHT22;702;49.466;11.086;2022-12-18T02:05:09;-9.50;77.80
1415;DHT22;702;49.466;11.086;2022-12-18T02:07:42;-9.50;78.60
1415;DHT22;702;49.466;11.086;2022-12-18T02:10:25;-9.50;78.30
1415;DHT22;702;49.466;11.086;2022-12-18T02:13:02;-9.60;78.70
1415;DHT22;702;49.466;11.086;2022-12-18T02:15:38;-9.60;79.50
1415;DHT22;702;49.466;11.086;2022-12-18T02:18:11;-9.60;80.00
1415;DHT22;702;49.466;11.086;2022-12-18T02:20:43;-9.70;80.60
1415;DHT22;702;49.466;11.086;2022-12-18T02:23:23;-9.60;83.10
1415;DHT22;702;49.466;11.086;2022-12-18T02:26:07;-9.60;82.20
1415;DHT22;702;49.466;11.086;2022-12-18T02:28:42;-9.60;82.20
1415;DHT22;702;49.466;11.086;2022-12-18T02:31:14;-9.60;83.20
1415;DHT22;702;49.466;11.086;2022-12-18T02:33:45;-9.50;83.20
1415;DHT22;702;49.466;11.086;2022-12-18T02:36:13;-9.40;84.30
1415;DHT22;702;49.466;11.086;2022-12-18T02:38:42;-9.30;85.60
1415;DHT22;702;49.466;11.086;2022-12-18T02:41:13;-9.30;84.20
1415;DHT22;702;49.466;11.086;2022-12-18T02:43:46;-9.20;85.50
1415;DHT22;702;49.466;11.086;2022-12-18T02:46:31;-9.10;87.60
1415;DHT22;702;49.466;11.086;2022-12-18T02:49:08;-9.00;89.30
1415;DHT22;702;49.466;11.086;2022-12-18T02:51:45;-9.00;89.00
1415;DHT22;702;49.466;11.086;2022-12-18T02:54:25;-9.00;90.00
1415;DHT22;702;49.466;11.086;2022-12-18T02:57:13;-8.90;90.50
1415;DHT22;702;49.466;11.086;2022-12-18T02:59:49;-8.90;90.60
1415;DHT22;702;49.466;11.086;2022-12-18T03:02:25;-8.90;90.90
1415;DHT22;702;49.466;11.086;2022-12-18T03:05:01;-8.80;91.10
1415;DHT22;702;49.466;11.086;2022-12-18T03:07:36;-8.80;90.90
1415;DHT22;702;49.466;11.086;2022-12-18T03:10:07;-8.80;90.90
1415;DHT22;702;49.466;11.086;2022-12-18T03:12:40;-8.70;91.10
1415;DHT22;702;49.466;11.086;2022-12-18T03:15:14;-8.60;92.00
1415;DHT22;702;49.466;11.086;2022-12-18T03:17:48;-8.50;91.30
1415;DHT22;702;49.466;11.086;2022-12-18T03:20:29;-8.50;91.00
1415;DHT22;702;49.466;11.086;2022-12-18T03:23:04;-8.40;90.70
1415;DHT22;702;49.466;11.086;2022-12-18T03:25:35;-8.30;90.10
1415;DHT22;702;49.466;11.086;2022-12-18T03:28:12;-8.20;90.20
1415;DHT22;702;49.466;11.086;2022-12-18T03:30:44;-8.20;89.10
1415;DHT22;702;49.466;11.086;2022-12-18T03:33:16;-8.10;89.70
1415;DHT22;702;49.466;11.086;2022-12-18T03:35:47;-8.00;89.50
1415;DHT22;702;49.466;11.086;2022-12-18T03:38:14;-7.90;90.00
1415;DHT22;702;49.466;11.086;2022-12-18T03:40:49;-7.80;89.20
1415;DHT22;702;49.466;11.086;2022-12-18T03:43:32;-7.80;88.80
1415;DHT22;702;49.466;11.086;2022-12-18T03:46:06;-7.70;88.60
1415;DHT22;702;49.466;11.086;2022-12-18T03:48:38;-7.60;88.70
1415;DHT22;702;49.466;11.086;2022-12-18T03:51:11;-7.50;88.80
1415;DHT22;702;49.466;11.086;2022-12-18T03:53:46;-7.40;89.30
1415;DHT22;702;49.466;11.086;2022-12-18T03:56:18;-7.30;89.30
1415;DHT22;702;49.466;11.086;2022-12-18T03:58:50;-7.20;89.90
1415;DHT22;702;49.466;11.086;2022-12-18T04:01:22;-7.10;90.10
1415;DHT22;702;49.466;11.086;2022-12-18T04:03:53;-7.00;90.00
1415;DHT22;702;49.466;11.086;2022-12-18T04:06:21;-7.00;89.10
1415;DHT22;702;49.466;11.086;2022-12-18T04:08:48;-7.00;88.00
1415;DHT22;702;49.466;11.086;2022-12-18T04:11:16;-7.00;88.10
1415;DHT22;702;49.466;11.086;2022-12-18T04:13:43;-7.00;88.60
1415;DHT22;702;49.466;11.086;2022-12-18T04:16:12;-7.00;88.90
1415;DHT22;702;49.466;11.086;2022-12-18T04:18:39;-7.00;88.20
1415;DHT22;702;49.466;11.086;2022-12-18T04:21:07;-7.10;88.00
1415;DHT22;702;49.466;11.086;2022-12-18T04:23:34;-7.10;89.60
1415;DHT22;702;49.466;11.086;2022-12-18T04:26:02;-7.00;90.40
1415;DHT22;702;49.466;11.086;2022-12-18T04:28:29;-6.90;90.10
1415;DHT22;702;49.466;11.086;2022-12-18T04:30:56;-6.90;90.00
1415;DHT22;702;49.466;11.086;2022-12-18T04:33:25;-6.80;88.80
1415;DHT22;702;49.466;11.086;2022-12-18T04:35:52;-6.80;89.20
1415;DHT22;702;49.466;11.086;2022-12-18T04:38:19;-6.90;87.50
1415;DHT22;702;49.466;11.086;2022-12-18T04:40:46;-6.90;86.80
1415;DHT22;702;49.466;11.086;2022-12-18T04:43:13;-6.80;87.70
1415;DHT22;702;49.466;11.086;2022-12-18T04:45:41;-6.80;86.00
1415;DHT22;702;49.466;11.086;2022-12-18T04:48:08;-6.90;86.60
1415;DHT22;702;49.466;11.086;2022-12-18T04:50:37;-6.80;85.90
1415;DHT22;702;49.466;11.086;2022-12-18T04:53:04;-6.90;86.10
1415;DHT22;702;49.466;11.086;2022-12-18T04:55:31;-6.90;83.80
1415;DHT22;702;49.466;11.086;2022-12-18T04:57:59;-6.90;85.50
1415;DHT22;702;49.466;11.086;2022-12-18T05:00:26;-6.90;84.80
1415;DHT22;702;49.466;11.086;2022-12-18T05:02:53;-6.90;84.50
1415;DHT22;702;49.466;11.086;2022-12-18T05:05:20;-6.90;84.20
1415;DHT22;702;49.466;11.086;2022-12-18T05:07:49;-6.90;83.30
1415;DHT22;702;49.466;11.086;2022-12-18T05:10:16;-6.90;83.80
1415;DHT22;702;49.466;11.086;2022-12-18T05:12:43;-6.90;85.10
1415;DHT22;702;49.466;11.086;2022-12-18T05:15:27;-6.90;84.80
1415;DHT22;702;49.466;11.086;2022-12-18T05:17:55;-6.90;85.80
1415;DHT22;702;49.466;11.086;2022-12-18T05:20:23;-6.90;84.50
1415;DHT22;702;49.466;11.086;2022-12-18T05:22:52;-6.80;83.90
1415;DHT22;702;49.466;11.086;2022-12-18T05:25:19;-6.90;83.20
1415;DHT22;702;49.466;11.086;2022-12-18T05:27:47;-6.80;83.20
1415;DHT22;702;49.466;11.086;2022-12-18T05:30:15;-6.90;83.20
1415;DHT22;702;49.466;11.086;2022-12-18T05:32:43;-6.90;84.20
1415;DHT22;702;49.466;11.086;2022-12-18T05:35:11;-6.90;83.80
1415;DHT22;702;49.466;11.086;2022-12-18T05:37:38;-6.90;84.10
1415;DHT22;702;49.466;11.086;2022-12-18T05:40:08;-6.90;84.80
1415;DHT22;702;49.466;11.086;2022-12-18T05:42:36;-6.90;85.10
1415;DHT22;702;49.466;11.086;2022-12-18T05:45:04;-6.80;86.40
1415;DHT22;702;49.466;11.086;2022-12-18T05:47:32;-6.70;85.60
1415;DHT22;702;49.466;11.086;2022-12-18T05:49:59;-6.80;85.00
1415;DHT22;702;49.466;11.086;2022-12-18T05:52:26;-6.70;85.10
1415;DHT22;702;49.466;11.086;2022-12-18T05:54:53;-6.70;86.00
1415;DHT22;702;49.466;11.086;2022-12-18T05:57:22;-6.70;86.00
1415;DHT22;702;49.466;11.086;2022-12-18T05:59:49;-6.60;86.00
1415;DHT22;702;49.466;11.086;2022-12-18T06:02:16;-6.60;84.90
1415;DHT22;702;49.466;11.086;2022-12-18T06:04:44;-6.60;84.80
1415;DHT22;702;49.466;11.086;2022-12-18T06:07:11;-6.60;85.00
1415;DHT22;702;49.466;11.086;2022-12-18T06:09:38;-6.60;85.70
1415;DHT22;702;49.466;11.086;2022-12-18T06:12:06;-6.60;86.00
1415;DHT22;702;49.466;11.086;2022-12-18T06:14:34;-6.50;86.10
1415;DHT22;702;49.466;11.086;2022-12-18T06:17:02;-6.40;86.80
1415;DHT22;702;49.466;11.086;2022-12-18T06:19:29;-6.50;85.50
1415;DHT22;702;49.466;11.086;2022-12-18T06:21:56;-6.50;85.90
1415;DHT22;702;49.466;11.086;2022-12-18T06:24:24;-6.50;85.60
1415;DHT22;702;49.466;11.086;2022-12-18T06:26:51;-6.50;85.60
1415;DHT22;702;49.466;11.086;2022-12-18T06:29:19;-6.50;86.30
1415;DHT22;702;49.466;11.086;2022-12-18T06:31:48;-6.50;85.90
1415;DHT22;702;49.466;11.086;2022-12-18T06:34:15;-6.50;85.90
1415;DHT22;702;49.466;11.086;2022-12-18T06:36:42;-6.40;86.30
1415;DHT22;702;49.466;11.086;2022-12-18T06:39:09;-6.40;86.60
1415;DHT22;702;49.466;11.086;2022-12-18T06:41:37;-6.40;87.30
1415;DHT22;702;49.466;11.086;2022-12-18T06:44:04;-6.30;86.90
1415;DHT22;702;49.466;11.086;2022-12-18T06:46:31;-6.30;87.30
1415;DHT22;702;49.466;11.086;2022-12-18T06:49:00;-6.20;88.30
1415;DHT22;702;49.466;11.086;2022-12-18T06:51:27;-6.10;86.50
1415;DHT22;702;49.466;11.086;2022-12-18T06:53:54;-6.10;86.60
1415;DHT22;702;49.466;11.086;2022-12-18T06:56:22;-6.00;87.10
1415;DHT22;702;49.466;11.086;2022-12-18T06:58:49;-6.00;86.30
1415;DHT22;702;49.466;11.086;2022-12-18T07:01:16;-6.00;86.20
1415;DHT22;702;49.466;11.086;2022-12-18T07:03:44;-6.00;87.20
1415;DHT22;702;49.466;11.086;2022-12-18T07:06:17;-6.00;87.10
1415;DHT22;702;49.466;11.086;2022-12-18T07:08:46;-5.90;85.70
1415;DHT22;702;49.466;11.086;2022-12-18T07:11:14;-6.00;86.00
1415;DHT22;702;49.466;11.086;2022-12-18T07:13:42;-5.90;86.50
1415;DHT22;702;49.466;11.086;2022-12-18T07:16:11;-5.90;86.50
1415;DHT22;702;49.466;11.086;2022-12-18T07:18:41;-5.80;87.10
1415;DHT22;702;49.466;11.086;2022-12-18T07:21:12;-5.80;87.40
1415;DHT22;702;49.466;11.086;2022-12-18T07:23:42;-5.70;87.00
1415;DHT22;702;49.466;11.086;2022-12-18T07:26:11;-5.70;86.70
1415;DHT22;702;49.466;11.086;2022-12-18T07:28:40;-5.70;85.90
1415;DHT22;702;49.466;11.086;2022-12-18T07:31:10;-5.70;86.60
1415;DHT22;702;49.466;11.086;2022-12-18T07:33:38;-5.60;88.00
1415;DHT22;702;49.466;11.086;2022-12-18T07:36:07;-5.50;87.10
1415;DHT22;702;49.466;11.086;2022-12-18T07:38:36;-5.60;86.40
1415;DHT22;702;49.466;11.086;2022-12-18T07:41:06;-5.50;87.90
1415;DHT22;702;49.466;11.086;2022-12-18T07:43:37;-5.50;87.10
1415;DHT22;702;49.466;11.086;2022-12-18T07:46:06;-5.40;87.80
1415;DHT22;702;49.466;11.086;2022-12-18T07:48:33;-5.30;87.00
1415;DHT22;702;49.466;11.086;2022-12-18T07:51:01;-5.30;87.90
1415;DHT22;702;49.466;11.086;2022-12-18T07:53:29;-5.10;89.40
1415;DHT22;702;49.466;11.086;2022-12-18T07:55:57;-4.90;88.90
1415;DHT22;702;49.466;11.086;2022-12-18T07:58:27;-4.70;88.40
1415;DHT22;702;49.466;11.086;2022-12-18T08:00:54;-4.60;87.00
1415;DHT22;702;49.466;11.086;2022-12-18T08:03:29;-4.60;86.00
1415;DHT22;702;49.466;11.086;2022-12-18T08:05:59;-4.60;86.30
1415;DHT22;702;49.466;11.086;2022-12-18T08:08:26;-4.50;86.20
1415;DHT22;702;49.466;11.086;2022-12-18T08:10:54;-4.50;85.70
1415;DHT22;702;49.466;11.086;2022-12-18T08:13:21;-4.40;86.30
1415;DHT22;702;49.466;11.086;2022-12-18T08:15:57;-4.30;86.10
1415;DHT22;702;49.466;11.086;2022-12-18T08:18:24;-4.20;86.60
1415;DHT22;702;49.466;11.086;2022-12-18T08:20:52;-4.10;84.70
1415;DHT22;702;49.466;11.086;2022-12-18T08:23:19;-4.10;85.80
1415;DHT22;702;49.466;11.086;2022-12-18T08:25:47;-4.00;85.50
1415;DHT22;702;49.466;11.086;2022-12-18T08:28:14;-4.00;85.80
1415;DHT22;702;49.466;11.086;2022-12-18T08:30:41;-3.80;86.00
1415;DHT22;702;49.466;11.086;2022-12-18T08:33:11;-3.80;84.10
1415;DHT22;702;49.466;11.086;2022-12-18T08:35:38;-3.90;85.20
1415;DHT22;702;49.466;11.086;2022-12-18T08:38:05;-3.80;85.80
1415;DHT22;702;49.466;11.086;2022-12-18T08:40:33;-3.70;85.90
1415;DHT22;702;49.466;11.086;2022-12-18T08:43:00;-3.70;86.30
1415;DHT22;702;49.466;11.086;2022-12-18T08:45:45;-3.50;86.50
1415;DHT22;702;49.466;11.086;2022-12-18T08:48:13;-3.40;84.30
1415;DHT22;702;49.466;11.086;2022-12-18T08:50:40;-3.50;84.30
1415;DHT22;702;49.466;11.086;2022-12-18T08:53:08;-3.40;85.70
1415;DHT22;702;49.466;11.086;2022-12-18T08:55:35;-3.30;84.80
1415;DHT22;702;49.466;11.086;2022-12-18T08:58:02;-3.10;84.60
1415;DHT22;702;49.466;11.086;2022-12-18T09:00:30;-3.10;84.00
1415;DHT22;702;49.466;11.086;2022-12-18T09:02:59;-3.10;83.00
1415;DHT22;702;49.466;11.086;2022-12-18T09:05:29;-3.10;83.90
1415;DHT22;702;49.466;11.086;2022-12-18T09:07:56;-3.10;83.60
1415;DHT22;702;49.466;11.086;2022-12-18T09:10:23;-3.10;83.20
1415;DHT22;702;49.466;11.086;2022-12-18T09:12:51;-3.10;82.20
1415;DHT22;702;49.466;11.086;2022-12-18T09:15:18;-2.90;84.60
1415;DHT22;702;49.466;11.086;2022-12-18T09:17:45;-2.90;82.10
1415;DHT22;702;49.466;11.086;2022-12-18T09:20:13;-2.90;81.50
1415;DHT22;702;49.466;11.086;2022-12-18T09:22:42;-3.00;80.90
1415;DHT22;702;49.466;11.086;2022-12-18T09:25:09;-2.90;81.60
1415;DHT22;702;49.466;11.086;2022-12-18T09:27:36;-2.80;81.10
1415;DHT22;702;49.466;11.086;2022-12-18T09:30:06;-2.80;79.80
1415;DHT22;702;49.466;11.086;2022-12-18T09:32:34;-2.80;79.40
1415;DHT22;702;49.466;11.086;2022-12-18T09:35:01;-2.70;79.30
1415;DHT22;702;49.466;11.086;2022-12-18T09:37:28;-2.70;78.50
1415;DHT22;702;49.466;11.086;2022-12-18T09:39:56;-2.80;78.10
1415;DHT22;702;49.466;11.086;2022-12-18T09:42:23;-2.80;78.80
1415;DHT22;702;49.466;11.086;2022-12-18T09:44:53;-2.70;78.40
1415;DHT22;702;49.466;11.086;2022-12-18T09:47:24;-2.60;77.70
1415;DHT22;702;49.466;11.086;2022-12-18T09:49:58;-2.60;77.10
1415;DHT22;702;49.466;11.086;2022-12-18T09:52:28;-2.60;76.90
1415;DHT22;702;49.466;11.086;2022-12-18T09:55:03;-2.50;76.50
1415;DHT22;702;49.466;11.086;2022-12-18T09:57:36;-2.60;76.30
1415;DHT22;702;49.466;11.086;2022-12-18T10:00:16;-2.60;76.50
1415;DHT22;702;49.466;11.086;2022-12-18T10:02:47;-2.50;76.40
1415;DHT22;702;49.466;11.086;2022-12-18T10:05:16;-2.40;76.70
1415;DHT22;702;49.466;11.086;2022-12-18T10:07:53;-2.40;76.60
1415;DHT22;702;49.466;11.086;2022-12-18T10:10:30;-2.30;75.90
1415;DHT22;702;49.466;11.086;2022-12-18T10:13:09;-2.50;75.60
1415;DHT22;702;49.466;11.086;2022-12-18T10:15:54;-2.40;76.10
1415;DHT22;702;49.466;11.086;2022-12-18T10:18:36;-2.50;75.80
1415;DHT22;702;49.466;11.086;2022-12-18T10:21:18;-2.60;75.40
1415;DHT22;702;49.466;11.086;2022-12-18T10:23:54;-2.60;75.60
1415;DHT22;702;49.466;11.086;2022-12-18T10:26:26;-2.60;75.40
1415;DHT22;702;49.466;11.086;2022-12-18T10:28:53;-2.60;75.30
1415;DHT22;702;49.466;11.086;2022-12-18T10:31:24;-2.70;75.40
1415;DHT22;702;49.466;11.086;2022-12-18T10:33:53;-2.70;75.40
1415;DHT22;702;49.466;11.086;2022-12-18T10:36:21;-2.70;75.20
1415;DHT22;702;49.466;11.086;2022-12-18T10:38:49;-2.60;75.40
1415;DHT22;702;49.466;11.086;2022-12-18T10:41:26;-2.50;75.40
1415;DHT22;702;49.466;11.086;2022-12-18T10:44:12;-2.50;75.00
1415;DHT22;702;49.466;11.086;2022-12-18T10:46:44;-2.50;75.00
1415;DHT22;702;49.466;11.086;2022-12-18T10:49:23;-2.60;74.60
1415;DHT22;702;49.466;11.086;2022-12-18T10:52:05;-2.60;74.60
1415;DHT22;702;49.466;11.086;2022-12-18T10:54:35;-2.60;74.90
1415;DHT22;702;49.466;11.086;2022-12-18T10:57:29;-2.50;74.90
1415;DHT22;702;49.466;11.086;2022-12-18T11:00:03;-2.70;74.50
1415;DHT22;702;49.466;11.086;2022-12-18T11:02:47;-2.80;74.90
1415;DHT22;702;49.466;11.086;2022-12-18T11:05:26;-2.80;74.80
1415;DHT22;702;49.466;11.086;2022-12-18T11:07:55;-2.80;75.10
1415;DHT22;702;49.466;11.086;2022-12-18T11:10:27;-2.90;75.60
1415;DHT22;702;49.466;11.086;2022-12-18T11:13:12;-3.00;75.40
1415;DHT22;702;49.466;11.086;2022-12-18T11:15:44;-3.00;75.60
1415;DHT22;702;49.466;11.086;2022-12-18T11:18:17;-3.00;76.00
1415;DHT22;702;49.466;11.086;2022-12-18T11:20:51;-3.00;76.10
1415;DHT22;702;49.466;11.086;2022-12-18T11:23:20;-3.00;76.10
1415;DHT22;702;49.466;11.086;2022-12-18T11:25:57;-2.90;75.60
1415;DHT22;702;49.466;11.086;2022-12-18T11:28:29;-2.90;75.70
1415;DHT22;702;49.466;11.086;2022-12-18T11:31:19;-3.00;76.10
1415;DHT22;702;49.466;11.086;2022-12-18T11:33:54;-2.90;75.90
1415;DHT22;702;49.466;11.086;2022-12-18T11:36:29;-2.70;75.80
1415;DHT22;702;49.466;11.086;2022-12-18T11:39:04;-2.70;75.90
1415;DHT22;702;49.466;11.086;2022-12-18T11:41:41;-2.60;75.90
1415;DHT22;702;49.466;11.086;2022-12-18T11:44:38;-2.50;75.90
1415;DHT22;702;49.466;11.086;2022-12-18T11:47:15;-2.50;75.60
1415;DHT22;702;49.466;11.086;2022-12-18T11:49:49;-2.40;76.00
1415;DHT22;702;49.466;11.086;2022-12-18T11:52:19;-2.40;75.70
1415;DHT22;702;49.466;11.086;2022-12-18T11:54:51;-2.30;75.50
1415;DHT22;702;49.466;11.086;2022-12-18T11:57:28;-2.20;75.40
1415;DHT22;702;49.466;11.086;2022-12-18T12:00:09;-2.00;75.50
1415;DHT22;702;49.466;11.086;2022-12-18T12:03:10;-2.00;74.80
1415;DHT22;702;49.466;11.086;2022-12-18T12:05:55;-1.80;74.70
1415;DHT22;702;49.466;11.086;2022-12-18T12:08:35;-1.90;74.50
1415;DHT22;702;49.466;11.086;2022-12-18T12:11:12;-2.00;74.40
1415;DHT22;702;49.466;11.086;2022-12-18T12:13:54;-2.10;74.50
1415;DHT22;702;49.466;11.086;2022-12-18T12:16:36;-2.10;74.90
1415;DHT22;702;49.466;11.086;2022-12-18T12:19:18;-2.10;74.70
1415;DHT22;702;49.466;11.086;2022-12-18T12:21:54;-2.00;74.80
1415;DHT22;702;49.466;11.086;2022-12-18T12:24:36;-1.90;74.50
1415;DHT22;702;49.466;11.086;2022-12-18T12:27:16;-1.90;74.90
1415;DHT22;702;49.466;11.086;2022-12-18T12:29:55;-1.80;74.60
1415;DHT22;702;49.466;11.086;2022-12-18T12:32:43;-1.80;74.60
1415;DHT22;702;49.466;11.086;2022-12-18T12:35:25;-1.80;74.80
1415;DHT22;702;49.466;11.086;2022-12-18T12:38:05;-1.70;74.60
1415;DHT22;702;49.466;11.086;2022-12-18T12:40:38;-1.50;74.20
1415;DHT22;702;49.466;11.086;2022-12-18T12:43:19;-1.80;73.90
1415;DHT22;702;49.466;11.086;2022-12-18T12:45:52;-1.90;74.40
1415;DHT22;702;49.466;11.086;2022-12-18T12:48:32;-1.80;74.60
1415;DHT22;702;49.466;11.086;2022-12-18T12:51:09;-2.00;75.00
1415;DHT22;702;49.466;11.086;2022-12-18T12:53:39;-1.90;74.70
1415;DHT22;702;49.466;11.086;2022-12-18T12:56:09;-1.90;74.50
1415;DHT22;702;49.466;11.086;2022-12-18T12:58:45;-1.90;74.90
1415;DHT22;702;49.466;11.086;2022-12-18T13:01:24;-1.70;74.60
1415;DHT22;702;49.466;11.086;2022-12-18T13:04:03;-1.60;74.40
1415;DHT22;702;49.466;11.086;2022-12-18T13:06:42;-1.70;74.20
1415;DHT22;702;49.466;11.086;2022-12-18T13:09:12;-1.80;74.20
1415;DHT22;702;49.466;11.086;2022-12-18T13:11:41;-1.80;74.20
1415;DHT22;702;49.466;11.086;2022-12-18T13:14:29;-1.90;74.30
1415;DHT22;702;49.466;11.086;2022-12-18T13:17:29;-1.90;74.50
1415;DHT22;702;49.466;11.086;2022-12-18T13:20:10;-1.80;74.70
1415;DHT22;702;49.466;11.086;2022-12-18T13:22:42;-1.80;74.20
1415;DHT22;702;49.466;11.086;2022-12-18T13:25:30;-1.70;74.10
1415;DHT22;702;49.466;11.086;2022-12-18T13:28:10;-1.60;74.10
1415;DHT22;702;49.466;11.086;2022-12-18T13:30:50;-1.50;73.80
1415;DHT22;702;49.466;11.086;2022-12-18T13:33:49;-1.60;73.80
1415;DHT22;702;49.466;11.086;2022-12-18T13:36:34;-1.50;73.80
1415;DHT22;702;49.466;11.086;2022-12-18T13:39:25;-1.60;73.90
1415;DHT22;702;49.466;11.086;2022-12-18T13:45:40;-1.90;73.80
1415;DHT22;702;49.466;11.086;2022-12-18T13:48:21;-1.80;74.20
1415;DHT22;702;49.466;11.086;2022-12-18T13:50:56;-1.70;74.10
1415;DHT22;702;49.466;11.086;2022-12-18T13:53:29;-1.60;75.60
1415;DHT22;702;49.466;11.086;2022-12-18T13:55:59;-1.60;74.40
1415;DHT22;702;49.466;11.086;2022-12-18T13:58:27;-1.60;74.30
1415;DHT22;702;49.466;11.086;2022-12-18T14:00:54;-1.60;74.00
1415;DHT22;702;49.466;11.086;2022-12-18T14:03:24;-1.70;73.90
1415;DHT22;702;49.466;11.086;2022-12-18T14:06:02;-1.80;73.90
1415;DHT22;702;49.466;11.086;2022-12-18T14:08:37;-2.00;74.30
1415;DHT22;702;49.466;11.086;2022-12-18T14:11:06;-2.10;74.10
1415;DHT22;702;49.466;11.086;2022-12-18T14:13:37;-2.10;74.30
1415;DHT22;702;49.466;11.086;2022-12-18T14:16:07;-2.00;74.20
1415;DHT22;702;49.466;11.086;2022-12-18T14:18:43;-2.00;74.00
1415;DHT22;702;49.466;11.086;2022-12-18T14:21:22;-2.20;74.10
1415;DHT22;702;49.466;11.086;2022-12-18T14:24:03;-2.30;74.10
1415;DHT22;702;49.466;11.086;2022-12-18T14:26:32;-2.20;74.20
1415;DHT22;702;49.466;11.086;2022-12-18T14:29:01;-2.30;74.30
1415;DHT22;702;49.466;11.086;2022-12-18T14:31:45;-2.30;74.40
1415;DHT22;702;49.466;11.086;2022-12-18T14:34:15;-2.30;74.40
1415;DHT22;702;49.466;11.086;2022-12-18T14:36:52;-2.30;74.50
1415;DHT22;702;49.466;11.086;2022-12-18T14:39:23;-2.20;74.20
1415;DHT22;702;49.466;11.086;2022-12-18T14:41:51;-2.30;74.00
1415;DHT22;702;49.466;11.086;2022-12-18T14:44:18;-2.40;74.20
1415;DHT22;702;49.466;11.086;2022-12-18T14:46:47;-2.50;74.00
1415;DHT22;702;49.466;11.086;2022-12-18T14:49:21;-2.50;74.20
1415;DHT22;702;49.466;11.086;2022-12-18T14:51:53;-2.50;74.30
1415;DHT22;702;49.466;11.086;2022-12-18T14:54:24;-2.60;74.10
1415;DHT22;702;49.466;11.086;2022-12-18T14:56:56;-2.60;74.30
1415;DHT22;702;49.466;11.086;2022-12-18T14:59:27;-2.70;74.50
1415;DHT22;702;49.466;11.086;2022-12-18T15:01:59;-2.80;74.80
1415;DHT22;702;49.466;11.086;2022-12-18T15:04:30;-2.80;74.80
1415;DHT22;702;49.466;11.086;2022-12-18T15:07:07;-2.90;74.90
1415;DHT22;702;49.466;11.086;2022-12-18T15:09:39;-3.00;75.00
1415;DHT22;702;49.466;11.086;2022-12-18T15:12:22;-3.00;75.30
1415;DHT22;702;49.466;11.086;2022-12-18T15:14:53;-3.00;75.90
1415;DHT22;702;49.466;11.086;2022-12-18T15:17:22;-3.10;75.90
1415;DHT22;702;49.466;11.086;2022-12-18T15:19:51;-3.10;75.80
1415;DHT22;702;49.466;11.086;2022-12-18T15:22:25;-3.10;76.00
1415;DHT22;702;49.466;11.086;2022-12-18T15:24:55;-3.20;76.10
1415;DHT22;702;49.466;11.086;2022-12-18T15:27:27;-3.20;76.30
1415;DHT22;702;49.466;11.086;2022-12-18T15:30:00;-3.20;76.60
1415;DHT22;702;49.466;11.086;2022-12-18T15:32:29;-3.20;76.50
1415;DHT22;702;49.466;11.086;2022-12-18T15:35:03;-3.30;76.60
1415;DHT22;702;49.466;11.086;2022-12-18T15:37:34;-3.30;76.80
1415;DHT22;702;49.466;11.086;2022-12-18T15:40:04;-3.40;76.90
1415;DHT22;702;49.466;11.086;2022-12-18T15:42:32;-3.40;77.10
1415;DHT22;702;49.466;11.086;2022-12-18T15:45:17;-3.40;77.40
1415;DHT22;702;49.466;11.086;2022-12-18T15:47:45;-3.40;77.60
1415;DHT22;702;49.466;11.086;2022-12-18T15:50:12;-3.40;77.60
1415;DHT22;702;49.466;11.086;2022-12-18T15:52:43;-3.50;77.80
1415;DHT22;702;49.466;11.086;2022-12-18T15:55:14;-3.40;78.10
1415;DHT22;702;49.466;11.086;2022-12-18T15:58:00;-3.50;78.30
1415;DHT22;702;49.466;11.086;2022-12-18T16:00:27;-3.40;78.10
1415;DHT22;702;49.466;11.086;2022-12-18T16:02:54;-3.50;78.00
1415;DHT22;702;49.466;11.086;2022-12-18T16:05:23;-3.50;78.40
1415;DHT22;702;49.466;11.086;2022-12-18T16:07:50;-3.50;78.40
1415;DHT22;702;49.466;11.086;2022-12-18T16:10:19;-3.50;78.40
1415;DHT22;702;49.466;11.086;2022-12-18T16:12:46;-3.50;78.60
1415;DHT22;702;49.466;11.086;2022-12-18T16:15:15;-3.50;78.50
1415;DHT22;702;49.466;11.086;2022-12-18T16:17:42;-3.50;78.40
1415;DHT22;702;49.466;11.086;2022-12-18T16:20:12;-3.50;78.30
1415;DHT22;702;49.466;11.086;2022-12-18T16:22:42;-3.60;77.90
1415;DHT22;702;49.466;11.086;2022-12-18T16:25:17;-3.60;78.00
1415;DHT22;702;49.466;11.086;2022-12-18T16:27:52;-3.60;78.20
1415;DHT22;702;49.466;11.086;2022-12-18T16:30:23;-3.70;78.10
1415;DHT22;702;49.466;11.086;2022-12-18T16:32:52;-3.70;78.60
1415;DHT22;702;49.466;11.086;2022-12-18T16:35:20;-3.70;78.40